sensor_id;sensor_type;location;lat;lon;timestamp;P1;durP1;ratioP1;P2;durP2;ratioP2
51724;SDS011;37801;53.224;6.552;2024-02-23T09:31:05;9.40;;;2.30;;
51724;SDS011;37801;53.224;6.552;2024-02-23T09:34:01;8.63;;;1.77;;
51724;SDS011;37801;53.224;6.552;2024-02-23T09:36:31;8.57;;;2.22;;
51724;SDS011;37801;53.224;6.552;2024-02-23T09:41:38;7.60;;;2.30;;
51724;SDS011;37801;53.224;6.552;2024-02-23T09:44:05;5.78;;;2.30;;
51724;SDS011;37801;53.224;6.552;2024-02-23T09:46:33;9.32;;;2.58;;
51724;SDS011;37801;53.224;6.552;2024-02-23T09:49:41;4.65;;;2.05;;
51724;SDS011;37801;53.224;6.552;2024-02-23T10:02:47;11.35;;;1.95;;
51724;SDS011;37801;53.224;6.552;2024-02-23T11:54:44;9.10;;;1.60;;
51724;SDS011;37801;53.224;6.552;2024-02-23T12:22:55;6.68;;;1.65;;
51724;SDS011;37801;53.224;6.552;2024-02-23T12:30:51;6.57;;;1.77;;
51724;SDS011;37801;53.224;6.552;2024-02-23T15:22:48;2.67;;;1.30;;
51724;SDS011;37801;53.224;6.552;2024-02-23T15:56:29;5.50;;;2.85;;
51724;SDS011;37801;53.224;6.552;2024-02-23T16:30:44;9.63;;;3.80;;
51724;SDS011;37801;53.224;6.552;2024-02-23T16:33:13;8.75;;;4.00;;
51724;SDS011;37801;53.224;6.552;2024-02-23T16:35:44;4.82;;;3.22;;
51724;SDS011;37801;53.224;6.552;2024-02-23T16:38:12;9.30;;;4.03;;
51724;SDS011;37801;53.224;6.552;2024-02-23T16:40:42;7.78;;;2.85;;
51724;SDS011;37801;53.224;6.552;2024-02-23T16:43:12;5.70;;;2.75;;
51724;SDS011;37801;53.224;6.552;2024-02-23T16:45:39;8.27;;;2.78;;
51724;SDS011;37801;53.224;6.552;2024-02-23T16:48:08;6.50;;;2.70;;
51724;SDS011;37801;53.224;6.552;2024-02-23T16:50:38;5.45;;;3.08;;
51724;SDS011;37801;53.224;6.552;2024-02-23T16:53:09;8.52;;;3.20;;
51724;SDS011;37801;53.224;6.552;2024-02-23T16:55:42;7.60;;;3.53;;
51724;SDS011;37801;53.224;6.552;2024-02-23T16:58:09;8.05;;;3.20;;
51724;SDS011;37801;53.224;6.552;2024-02-23T17:00:43;7.05;;;3.13;;
51724;SDS011;37801;53.224;6.552;2024-02-23T17:08:34;10.40;;;3.38;;
51724;SDS011;37801;53.224;6.552;2024-02-23T17:11:02;9.35;;;4.18;;
51724;SDS011;37801;53.224;6.552;2024-02-23T17:13:54;8.30;;;3.33;;
51724;SDS011;37801;53.224;6.552;2024-02-23T17:22:27;6.32;;;3.03;;
51724;SDS011;37801;53.224;6.552;2024-02-23T17:25:06;7.80;;;3.65;;
51724;SDS011;37801;53.224;6.552;2024-02-23T17:35:27;9.80;;;4.75;;
51724;SDS011;37801;53.224;6.552;2024-02-23T17:37:53;10.77;;;4.13;;
51724;SDS011;37801;53.224;6.552;2024-02-23T17:40:19;10.82;;;4.38;;
51724;SDS011;37801;53.224;6.552;2024-02-23T17:42:46;7.65;;;3.03;;
51724;SDS011;37801;53.224;6.552;2024-02-23T17:45:12;10.30;;;3.67;;
51724;SDS011;37801;53.224;6.552;2024-02-23T17:47:38;8.70;;;3.47;;
51724;SDS011;37801;53.224;6.552;2024-02-23T17:50:05;8.60;;;3.78;;
51724;SDS011;37801;53.224;6.552;2024-02-23T17:52:36;11.85;;;5.60;;
51724;SDS011;37801;53.224;6.552;2024-02-23T19:45:16;6.22;;;3.30;;
51724;SDS011;37801;53.224;6.552;2024-02-23T19:47:45;8.43;;;3.88;;
51724;SDS011;37801;53.224;6.552;2024-02-23T19:50:11;13.73;;;6.35;;
51724;SDS011;37801;53.224;6.552;2024-02-23T19:52:38;10.70;;;5.35;;
51724;SDS011;37801;53.224;6.552;2024-02-23T19:55:13;10.20;;;4.05;;
51724;SDS011;37801;53.224;6.552;2024-02-23T19:57:48;9.43;;;3.13;;
51724;SDS011;37801;53.224;6.552;2024-02-23T20:00:21;6.03;;;2.85;;
51724;SDS011;37801;53.224;6.552;2024-02-23T20:03:08;7.07;;;2.97;;
51724;SDS011;37801;53.224;6.552;2024-02-23T20:05:37;6.28;;;2.83;;
51724;SDS011;37801;53.224;6.552;2024-02-23T20:08:03;5.22;;;2.45;;
51724;SDS011;37801;53.224;6.552;2024-02-23T20:10:29;9.45;;;2.63;;
51724;SDS011;37801;53.224;6.552;2024-02-23T20:12:55;6.28;;;2.13;;
51724;SDS011;37801;53.224;6.552;2024-02-23T20:15:22;6.95;;;1.98;;
51724;SDS011;37801;53.224;6.552;2024-02-23T20:17:48;6.97;;;1.88;;
51724;SDS011;37801;53.224;6.552;2024-02-23T20:20:15;6.35;;;2.03;;
51724;SDS011;37801;53.224;6.552;2024-02-23T20:22:41;5.95;;;2.03;;
51724;SDS011;37801;53.224;6.552;2024-02-23T20:25:08;5.90;;;2.25;;
51724;SDS011;37801;53.224;6.552;2024-02-23T20:27:34;5.43;;;2.42;;
51724;SDS011;37801;53.224;6.552;2024-02-23T20:30:04;4.18;;;2.10;;
51724;SDS011;37801;53.224;6.552;2024-02-23T20:32:31;8.00;;;2.40;;
51724;SDS011;37801;53.224;6.552;2024-02-23T20:34:57;4.45;;;2.10;;
51724;SDS011;37801;53.224;6.552;2024-02-23T20:37:23;5.15;;;2.10;;
51724;SDS011;37801;53.224;6.552;2024-02-23T20:39:50;3.17;;;1.73;;
51724;SDS011;37801;53.224;6.552;2024-02-23T20:42:16;5.47;;;2.00;;
51724;SDS011;37801;53.224;6.552;2024-02-23T20:44:42;5.80;;;2.90;;
51724;SDS011;37801;53.224;6.552;2024-02-23T20:47:08;8.02;;;3.78;;
51724;SDS011;37801;53.224;6.552;2024-02-23T20:49:35;7.38;;;3.25;;
51724;SDS011;37801;53.224;6.552;2024-02-23T20:52:01;6.30;;;2.75;;
51724;SDS011;37801;53.224;6.552;2024-02-23T20:54:27;6.43;;;2.30;;
51724;SDS011;37801;53.224;6.552;2024-02-23T20:56:54;6.82;;;2.30;;
51724;SDS011;37801;53.224;6.552;2024-02-23T20:59:20;8.20;;;2.63;;
51724;SDS011;37801;53.224;6.552;2024-02-23T21:01:46;3.85;;;2.22;;
51724;SDS011;37801;53.224;6.552;2024-02-23T21:04:12;6.22;;;2.28;;
51724;SDS011;37801;53.224;6.552;2024-02-23T21:06:38;5.50;;;2.20;;
51724;SDS011;37801;53.224;6.552;2024-02-23T21:09:04;6.95;;;2.42;;
51724;SDS011;37801;53.224;6.552;2024-02-23T21:11:30;4.93;;;2.20;;
51724;SDS011;37801;53.224;6.552;2024-02-23T21:13:56;6.68;;;2.05;;
51724;SDS011;37801;53.224;6.552;2024-02-23T21:16:23;4.68;;;2.03;;
51724;SDS011;37801;53.224;6.552;2024-02-23T21:18:49;5.63;;;2.30;;
51724;SDS011;37801;53.224;6.552;2024-02-23T21:21:15;5.30;;;2.60;;
51724;SDS011;37801;53.224;6.552;2024-02-23T21:23:45;6.47;;;2.60;;
51724;SDS011;37801;53.224;6.552;2024-02-23T21:26:11;8.45;;;2.58;;
51724;SDS011;37801;53.224;6.552;2024-02-23T21:28:37;5.85;;;2.85;;
51724;SDS011;37801;53.224;6.552;2024-02-23T21:31:04;6.65;;;2.53;;
51724;SDS011;37801;53.224;6.552;2024-02-23T21:33:30;7.05;;;2.75;;
51724;SDS011;37801;53.224;6.552;2024-02-23T21:35:56;7.80;;;2.35;;
51724;SDS011;37801;53.224;6.552;2024-02-23T21:38:39;4.18;;;2.53;;
51724;SDS011;37801;53.224;6.552;2024-02-23T21:41:07;8.43;;;2.67;;
51724;SDS011;37801;53.224;6.552;2024-02-23T21:43:33;6.03;;;2.85;;
51724;SDS011;37801;53.224;6.552;2024-02-23T21:46:00;5.97;;;2.78;;
51724;SDS011;37801;53.224;6.552;2024-02-23T21:48:26;5.90;;;3.15;;
51724;SDS011;37801;53.224;6.552;2024-02-23T21:50:52;4.80;;;2.88;;
51724;SDS011;37801;53.224;6.552;2024-02-23T21:53:18;5.70;;;2.78;;
51724;SDS011;37801;53.224;6.552;2024-02-23T21:55:45;5.22;;;3.05;;
51724;SDS011;37801;53.224;6.552;2024-02-23T21:58:11;6.05;;;3.03;;
51724;SDS011;37801;53.224;6.552;2024-02-23T22:00:37;7.03;;;2.88;;
51724;SDS011;37801;53.224;6.552;2024-02-23T22:03:03;6.57;;;3.40;;
51724;SDS011;37801;53.224;6.552;2024-02-23T22:05:30;7.50;;;3.25;;
51724;SDS011;37801;53.224;6.552;2024-02-23T22:07:56;6.85;;;3.33;;
51724;SDS011;37801;53.224;6.552;2024-02-23T22:10:22;5.00;;;3.13;;
51724;SDS011;37801;53.224;6.552;2024-02-23T22:12:48;5.28;;;3.13;;
51724;SDS011;37801;53.224;6.552;2024-02-23T22:15:15;7.60;;;2.78;;
51724;SDS011;37801;53.224;6.552;2024-02-23T22:17:41;8.57;;;3.35;;
51724;SDS011;37801;53.224;6.552;2024-02-23T22:20:07;7.70;;;3.10;;
51724;SDS011;37801;53.224;6.552;2024-02-23T22:22:33;5.85;;;2.95;;
51724;SDS011;37801;53.224;6.552;2024-02-23T22:25:02;7.57;;;3.00;;
51724;SDS011;37801;53.224;6.552;2024-02-23T22:27:28;7.60;;;2.95;;
51724;SDS011;37801;53.224;6.552;2024-02-23T22:29:55;6.68;;;3.08;;
51724;SDS011;37801;53.224;6.552;2024-02-23T22:32:22;6.35;;;3.00;;
51724;SDS011;37801;53.224;6.552;2024-02-23T22:34:48;6.30;;;2.60;;
51724;SDS011;37801;53.224;6.552;2024-02-23T22:37:17;7.25;;;2.80;;
51724;SDS011;37801;53.224;6.552;2024-02-23T22:39:43;7.00;;;2.78;;
51724;SDS011;37801;53.224;6.552;2024-02-23T22:42:09;5.47;;;2.38;;
51724;SDS011;37801;53.224;6.552;2024-02-23T22:44:36;8.27;;;3.58;;
51724;SDS011;37801;53.224;6.552;2024-02-23T22:47:02;7.18;;;3.15;;
51724;SDS011;37801;53.224;6.552;2024-02-23T22:49:28;8.57;;;3.15;;
51724;SDS011;37801;53.224;6.552;2024-02-23T22:51:54;6.07;;;2.47;;
51724;SDS011;37801;53.224;6.552;2024-02-23T22:54:20;6.57;;;2.38;;
51724;SDS011;37801;53.224;6.552;2024-02-23T22:56:46;6.38;;;2.30;;
51724;SDS011;37801;53.224;6.552;2024-02-23T22:59:12;7.65;;;2.25;;
51724;SDS011;37801;53.224;6.552;2024-02-23T23:01:39;4.47;;;2.25;;
51724;SDS011;37801;53.224;6.552;2024-02-23T23:04:14;9.13;;;2.30;;
51724;SDS011;37801;53.224;6.552;2024-02-23T23:06:43;6.05;;;2.33;;
51724;SDS011;37801;53.224;6.552;2024-02-23T23:09:10;4.78;;;2.03;;
51724;SDS011;37801;53.224;6.552;2024-02-23T23:11:37;5.28;;;1.92;;
51724;SDS011;37801;53.224;6.552;2024-02-23T23:14:04;5.35;;;2.15;;
51724;SDS011;37801;53.224;6.552;2024-02-23T23:16:30;5.55;;;2.08;;
51724;SDS011;37801;53.224;6.552;2024-02-23T23:18:56;3.83;;;2.05;;
51724;SDS011;37801;53.224;6.552;2024-02-23T23:21:22;3.92;;;2.17;;
51724;SDS011;37801;53.224;6.552;2024-02-23T23:23:49;4.32;;;1.77;;
51724;SDS011;37801;53.224;6.552;2024-02-23T23:26:15;4.43;;;2.05;;
51724;SDS011;37801;53.224;6.552;2024-02-23T23:28:44;6.20;;;2.00;;
51724;SDS011;37801;53.224;6.552;2024-02-23T23:31:14;6.75;;;2.40;;
51724;SDS011;37801;53.224;6.552;2024-02-23T23:33:40;6.03;;;2.10;;
51724;SDS011;37801;53.224;6.552;2024-02-23T23:36:07;5.10;;;1.75;;
51724;SDS011;37801;53.224;6.552;2024-02-23T23:38:35;3.58;;;1.60;;
51724;SDS011;37801;53.224;6.552;2024-02-23T23:41:04;6.93;;;2.00;;
51724;SDS011;37801;53.224;6.552;2024-02-23T23:43:30;7.43;;;2.47;;
51724;SDS011;37801;53.224;6.552;2024-02-23T23:45:56;3.97;;;2.45;;
51724;SDS011;37801;53.224;6.552;2024-02-23T23:48:22;5.65;;;2.70;;
51724;SDS011;37801;53.224;6.552;2024-02-23T23:50:48;5.13;;;2.60;;
51724;SDS011;37801;53.224;6.552;2024-02-23T23:53:15;5.57;;;2.25;;
51724;SDS011;37801;53.224;6.552;2024-02-23T23:55:41;4.65;;;2.08;;
51724;SDS011;37801;53.224;6.552;2024-02-23T23:58:07;4.20;;;1.92;;
